Time;durP1;ratioP1;P1;durP2;ratioP2;P2;SDS_P1;SDS_P2;PMS_P1;PMS_P2;Temp;Humidity;BMP_temperature;BMP_pressure;BME280_temperature;BME280_humidity;BME280_pressure;Samples;Min_cycle;Max_cycle;Signal;HPM_P1;HPM_P2
2023/01/02 00:00:09;;;;;;;;;;;20.40;56.00;;;;;;1541002;76;1483;-73
2023/01/02 00:02:10;;;;;;;;;;;20.40;56.00;;;;;;1538974;76;747;-73
2023/01/02 00:04:12;;;;;;;;;;;20.40;56.00;;;;;;1541607;76;1166;-73
2023/01/02 00:06:16;;;;;;;;;;;20.40;56.00;;;;;;1541762;77;693;-73
2023/01/02 00:08:18;;;;;;;;;;;20.40;56.00;;;;;;1530583;75;1767;-72
2023/01/02 00:10:20;;;;;;;;;;;20.40;56.00;;;;;;1541755;76;694;-73
2023/01/02 00:12:21;;;;;;;;;;;20.40;56.00;;;;;;1542200;76;706;-73
2023/01/02 00:14:23;;;;;;;;;;;20.40;56.00;;;;;;1541600;76;1456;-72
2023/01/02 00:16:25;;;;;;;;;;;20.40;56.00;;;;;;1530268;76;1939;-72
2023/01/02 00:18:27;;;;;;;;;;;20.40;56.00;;;;;;1530174;76;769;-72
2023/01/02 00:20:29;;;;;;;;;;;20.40;56.00;;;;;;1537906;76;718;-73
2023/01/02 00:22:31;;;;;;;;;;;20.40;56.00;;;;;;1540951;76;791;-72
2023/01/02 00:24:33;;;;;;;;;;;20.40;56.00;;;;;;1541991;76;1130;-72
2023/01/02 00:26:35;;;;;;;;;;;20.40;56.00;;;;;;1541332;76;633;-73
2023/01/02 00:28:37;;;;;;;;;;;20.30;56.00;;;;;;1535599;76;1541;-73
2023/01/02 00:30:39;;;;;;;;;;;20.40;56.00;;;;;;1540094;77;740;-72
2023/01/02 00:32:40;;;;;;;;;;;20.30;56.00;;;;;;1529923;76;769;-72
2023/01/02 00:34:42;;;;;;;;;;;20.40;56.00;;;;;;1534706;76;1122;-73
2023/01/02 00:36:44;;;;;;;;;;;20.40;56.10;;;;;;1542272;75;1941;-72
2023/01/02 00:38:46;;;;;;;;;;;20.30;56.00;;;;;;1538351;75;710;-72
2023/01/02 00:40:48;;;;;;;;;;;20.40;56.10;;;;;;1526449;75;791;-72
2023/01/02 00:42:50;;;;;;;;;;;20.40;56.10;;;;;;1540018;76;1518;-72
2023/01/02 00:44:52;;;;;;;;;;;20.40;56.10;;;;;;1540574;75;1086;-73
2023/01/02 00:46:53;;;;;;;;;;;20.40;56.10;;;;;;1542130;76;697;-73
2023/01/02 00:48:55;;;;;;;;;;;20.40;56.10;;;;;;1535758;76;738;-72
2023/01/02 00:50:57;;;;;;;;;;;20.40;56.10;;;;;;1541950;77;735;-73
2023/01/02 00:52:59;;;;;;;;;;;20.40;56.20;;;;;;1541865;76;1170;-73
2023/01/02 00:55:01;;;;;;;;;;;20.40;56.20;;;;;;1542220;75;1937;-73
2023/01/02 00:57:03;;;;;;;;;;;20.40;56.10;;;;;;1537980;75;1693;-72
2023/01/02 00:59:05;;;;;;;;;;;20.30;56.10;;;;;;1540972;76;699;-72
2023/01/02 01:01:06;;;;;;;;;;;20.40;56.20;;;;;;1545612;76;722;-73
2023/01/02 01:03:08;;;;;;;;;;;20.30;56.10;;;;;;1531972;76;1161;-72
2023/01/02 01:05:10;;;;;;;;;;;20.30;56.20;;;;;;1540591;75;692;-73
2023/01/02 01:07:12;;;;;;;;;;;20.40;56.10;;;;;;1545479;76;710;-73
2023/01/02 01:09:14;;;;;;;;;;;20.30;56.10;;;;;;1549036;76;1495;-73
2023/01/02 01:11:16;;;;;;;;;;;20.40;56.10;;;;;;1525113;76;722;-73
2023/01/02 01:13:18;;;;;;;;;;;20.30;56.00;;;;;;1539943;76;1177;-72
2023/01/02 01:15:20;;;;;;;;;;;20.40;56.10;;;;;;1542033;77;1943;-74
2023/01/02 01:17:22;;;;;;;;;;;20.40;56.10;;;;;;1545055;76;716;-73
2023/01/02 01:19:24;;;;;;;;;;;20.40;56.10;;;;;;1543657;76;747;-73
2023/01/02 01:21:26;;;;;;;;;;;20.40;56.10;;;;;;1540440;76;722;-73
2023/01/02 01:23:27;;;;;;;;;;;20.30;56.10;;;;;;1538224;75;1549;-73
2023/01/02 01:25:29;;;;;;;;;;;20.30;56.10;;;;;;1541333;76;710;-72
2023/01/02 01:27:31;;;;;;;;;;;20.30;56.10;;;;;;1541731;76;756;-73
2023/01/02 01:29:33;;;;;;;;;;;20.40;56.10;;;;;;1540619;76;732;-72
2023/01/02 01:31:35;;;;;;;;;;;20.30;56.10;;;;;;1530183;77;725;-72
2023/01/02 01:33:37;;;;;;;;;;;20.30;56.10;;;;;;1533974;75;1143;-73
2023/01/02 01:35:39;;;;;;;;;;;20.30;56.10;;;;;;1540331;75;1951;-72
2023/01/02 01:37:40;;;;;;;;;;;20.40;56.10;;;;;;1548177;75;1535;-73
2023/01/02 01:39:42;;;;;;;;;;;20.40;56.00;;;;;;1540526;75;626;-73
2023/01/02 01:41:44;;;;;;;;;;;20.40;56.00;;;;;;1541589;76;696;-73
2023/01/02 01:43:49;;;;;;;;;;;20.30;56.00;;;;;;1541043;75;1182;-72
2023/01/02 01:45:50;;;;;;;;;;;20.40;56.00;;;;;;1535563;76;716;-71
2023/01/02 01:47:53;;;;;;;;;;;20.30;56.00;;;;;;1540821;75;800;-72
2023/01/02 01:49:59;;;;;;;;;;;20.40;56.00;;;;;;1542158;77;721;-72
2023/01/02 01:52:02;;;;;;;;;;;20.30;56.00;;;;;;1535164;77;1561;-73
2023/01/02 01:54:05;;;;;;;;;;;20.30;56.00;;;;;;1537425;76;1162;-72
2023/01/02 01:56:07;;;;;;;;;;;20.30;55.90;;;;;;1534662;77;1956;-72
2023/01/02 01:58:11;;;;;;;;;;;20.30;56.00;;;;;;1539054;75;683;-72
2023/01/02 02:00:13;;;;;;;;;;;20.30;56.00;;;;;;1537479;75;744;-74
2023/01/02 02:02:15;;;;;;;;;;;20.40;56.00;;;;;;1540098;77;798;-73
2023/01/02 02:04:17;;;;;;;;;;;20.30;56.00;;;;;;1540061;76;1134;-72
2023/01/02 02:06:19;;;;;;;;;;;20.30;56.00;;;;;;1541239;76;1543;-72
2023/01/02 02:08:25;;;;;;;;;;;20.30;56.00;;;;;;1530011;75;721;-72
2023/01/02 02:10:27;;;;;;;;;;;20.30;56.00;;;;;;1542005;77;744;-72
2023/01/02 02:12:29;;;;;;;;;;;20.30;55.90;;;;;;1538849;76;739;-73
2023/01/02 02:14:31;;;;;;;;;;;20.30;56.00;;;;;;1534958;77;1196;-73
2023/01/02 02:16:34;;;;;;;;;;;20.30;56.00;;;;;;1535021;76;1989;-72
2023/01/02 02:18:52;;;;;;;;;;;20.30;56.00;;;;;;1528524;75;1720;-73
2023/01/02 02:20:59;;;;;;;;;;;20.30;56.00;;;;;;1534026;76;1693;-72
2023/01/02 02:23:05;;;;;;;;;;;20.30;56.00;;;;;;1535419;77;1599;-72
2023/01/02 02:25:21;;;;;;;;;;;20.30;56.00;;;;;;1529176;75;1622;-73
2023/01/02 02:27:27;;;;;;;;;;;20.30;56.00;;;;;;1538996;76;1594;-72
2023/01/02 02:29:43;;;;;;;;;;;20.30;56.00;;;;;;1529842;75;1133;-72
2023/01/02 02:31:46;;;;;;;;;;;20.30;56.00;;;;;;1538040;76;736;-74
2023/01/02 02:33:53;;;;;;;;;;;20.30;56.00;;;;;;1538719;76;1417;-73
2023/01/02 02:36:05;;;;;;;;;;;20.30;56.00;;;;;;1540861;76;1950;-73
2023/01/02 02:38:09;;;;;;;;;;;20.30;56.00;;;;;;1550327;76;726;-72
2023/01/02 02:40:18;;;;;;;;;;;20.30;56.00;;;;;;1538605;76;1026;-72
2023/01/02 02:42:25;;;;;;;;;;;20.30;55.90;;;;;;1531717;76;1418;-72
2023/01/02 02:44:28;;;;;;;;;;;20.30;56.00;;;;;;1539903;76;1132;-72
2023/01/02 02:46:44;;;;;;;;;;;20.30;56.00;;;;;;1541806;76;1698;-72
2023/01/02 02:49:05;;;;;;;;;;;20.30;56.00;;;;;;1537389;75;1616;-72
2023/01/02 02:51:09;;;;;;;;;;;20.30;56.00;;;;;;1524844;75;730;-72
2023/01/02 02:53:15;;;;;;;;;;;20.30;56.00;;;;;;1538909;77;1153;-73
2023/01/02 02:55:24;;;;;;;;;;;20.30;56.00;;;;;;1536683;76;1565;-73
2023/01/02 02:57:26;;;;;;;;;;;20.30;56.00;;;;;;1542154;76;1947;-72
2023/01/02 02:59:28;;;;;;;;;;;20.30;56.00;;;;;;1541715;76;703;-72
2023/01/02 03:01:30;;;;;;;;;;;20.30;56.00;;;;;;1534705;76;896;-73
2023/01/02 03:03:32;;;;;;;;;;;20.30;56.00;;;;;;1540217;76;1638;-73
2023/01/02 03:05:34;;;;;;;;;;;20.30;56.00;;;;;;1539627;76;749;-72
2023/01/02 03:07:38;;;;;;;;;;;20.30;56.00;;;;;;1542003;76;730;-72
2023/01/02 03:09:50;;;;;;;;;;;20.30;56.00;;;;;;1538361;76;719;-73
2023/01/02 03:11:54;;;;;;;;;;;20.30;56.00;;;;;;1533620;76;763;-72
2023/01/02 03:14:10;;;;;;;;;;;20.30;56.00;;;;;;1539143;76;1138;-72
2023/01/02 03:16:25;;;;;;;;;;;20.30;56.00;;;;;;1537205;75;1952;-73
2023/01/02 03:18:37;;;;;;;;;;;20.30;56.00;;;;;;1525123;76;683;-73
2023/01/02 03:20:44;;;;;;;;;;;20.30;55.90;;;;;;1534413;76;744;-73
2023/01/02 03:22:46;;;;;;;;;;;20.30;56.00;;;;;;1534032;76;668;-72
2023/01/02 03:24:48;;;;;;;;;;;20.30;56.00;;;;;;1542051;76;1134;-73
2023/01/02 03:26:52;;;;;;;;;;;20.30;55.90;;;;;;1535069;77;785;-72
2023/01/02 03:28:55;;;;;;;;;;;20.30;56.00;;;;;;1529811;76;658;-72
2023/01/02 03:30:57;;;;;;;;;;;20.30;56.00;;;;;;1541931;76;1440;-72
2023/01/02 03:33:07;;;;;;;;;;;20.30;55.90;;;;;;1541899;76;1131;-73
2023/01/02 03:35:14;;;;;;;;;;;20.30;55.90;;;;;;1527928;76;1034;-72
2023/01/02 03:37:17;;;;;;;;;;;20.30;55.90;;;;;;1548415;76;1914;-72
2023/01/02 03:39:20;;;;;;;;;;;20.30;55.90;;;;;;1529070;75;778;-72
2023/01/02 03:41:23;;;;;;;;;;;20.30;55.90;;;;;;1524510;76;722;-73
2023/01/02 03:43:28;;;;;;;;;;;20.30;55.90;;;;;;1536862;77;1166;-73
2023/01/02 03:45:34;;;;;;;;;;;20.30;55.90;;;;;;1540603;76;1549;-72
2023/01/02 03:47:40;;;;;;;;;;;20.30;55.80;;;;;;1542157;76;716;-72
2023/01/02 03:49:43;;;;;;;;;;;20.30;55.80;;;;;;1535469;75;1633;-73
2023/01/02 03:51:45;;;;;;;;;;;20.30;55.80;;;;;;1540447;76;712;-72
2023/01/02 03:53:48;;;;;;;;;;;20.20;55.60;;;;;;1539216;75;1157;-72
2023/01/02 03:56:01;;;;;;;;;;;20.30;55.70;;;;;;1533380;76;1944;-72
2023/01/02 03:58:04;;;;;;;;;;;20.30;55.70;;;;;;1529022;76;1524;-72
2023/01/02 04:00:13;;;;;;;;;;;20.30;55.70;;;;;;1541087;76;1736;-73
2023/01/02 04:02:19;;;;;;;;;;;20.30;55.70;;;;;;1535067;76;738;-73
2023/01/02 04:04:22;;;;;;;;;;;20.30;55.70;;;;;;1536619;76;1150;-73
2023/01/02 04:06:25;;;;;;;;;;;20.30;55.70;;;;;;1535803;76;688;-73
2023/01/02 04:08:29;;;;;;;;;;;20.30;55.60;;;;;;1542027;76;681;-74
2023/01/02 04:10:31;;;;;;;;;;;20.30;55.60;;;;;;1541440;76;700;-73
2023/01/02 04:12:33;;;;;;;;;;;20.30;55.50;;;;;;1540872;76;1532;-73
2023/01/02 04:14:36;;;;;;;;;;;20.30;55.60;;;;;;1540000;76;1119;-72
2023/01/02 04:16:38;;;;;;;;;;;20.30;55.60;;;;;;1537900;76;1935;-71
2023/01/02 04:18:42;;;;;;;;;;;20.30;55.50;;;;;;1527780;75;745;-73
2023/01/02 04:20:45;;;;;;;;;;;20.30;55.50;;;;;;1541350;76;1264;-73
2023/01/02 04:22:49;;;;;;;;;;;20.30;55.50;;;;;;1539549;75;718;-72
2023/01/02 04:24:52;;;;;;;;;;;20.30;55.50;;;;;;1591970;71;2421;-72
2023/01/02 04:26:56;;;;;;;;;;;20.30;55.50;;;;;;1610628;72;1492;-73
2023/01/02 04:28:58;;;;;;;;;;;20.30;55.50;;;;;;1614242;72;718;-73
2023/01/02 04:31:08;;;;;;;;;;;20.30;55.40;;;;;;1604317;72;824;-72
2023/01/02 04:33:09;;;;;;;;;;;20.30;55.40;;;;;;1596436;72;753;-73
2023/01/02 04:35:13;;;;;;;;;;;20.30;55.40;;;;;;1600214;72;1213;-72
2023/01/02 04:37:16;;;;;;;;;;;20.30;55.50;;;;;;1593624;73;1930;-73
2023/01/02 04:39:19;;;;;;;;;;;20.30;55.40;;;;;;1586232;73;989;-73
2023/01/02 04:41:25;;;;;;;;;;;20.20;55.30;;;;;;1599923;73;1457;-73
2023/01/02 04:43:27;;;;;;;;;;;20.20;55.30;;;;;;1594927;72;1159;-73
2023/01/02 04:45:29;;;;;;;;;;;20.30;55.40;;;;;;1600517;73;754;-72
2023/01/02 04:47:31;;;;;;;;;;;20.20;55.20;;;;;;1604485;73;705;-71
2023/01/02 04:49:33;;;;;;;;;;;20.30;55.30;;;;;;1602703;73;731;-73
2023/01/02 04:51:35;;;;;;;;;;;20.30;55.40;;;;;;1603476;73;695;-73
2023/01/02 04:53:37;;;;;;;;;;;20.30;55.30;;;;;;1596966;73;1356;-73
2023/01/02 04:55:38;;;;;;;;;;;20.30;55.30;;;;;;1605651;73;1380;-73
2023/01/02 04:57:40;;;;;;;;;;;20.30;55.30;;;;;;1604755;72;1942;-70
2023/01/02 04:59:42;;;;;;;;;;;20.30;55.30;;;;;;1602250;73;726;-72
2023/01/02 05:01:44;;;;;;;;;;;20.30;55.30;;;;;;1600255;73;717;-73
2023/01/02 05:03:46;;;;;;;;;;;20.30;55.20;;;;;;1600782;73;1249;-70
2023/01/02 05:05:48;;;;;;;;;;;20.30;55.30;;;;;;1600808;73;743;-72
2023/01/02 05:07:50;;;;;;;;;;;20.30;55.30;;;;;;1602358;73;716;-73
2023/01/02 05:09:52;;;;;;;;;;;20.30;55.30;;;;;;1593799;73;1489;-73
2023/01/02 05:11:54;;;;;;;;;;;20.30;55.20;;;;;;1590057;73;734;-73
2023/01/02 05:13:56;;;;;;;;;;;20.20;55.10;;;;;;1609428;72;1155;-75
2023/01/02 05:15:58;;;;;;;;;;;20.30;55.20;;;;;;1605027;74;713;-71
2023/01/02 05:17:59;;;;;;;;;;;20.30;55.20;;;;;;1602128;74;1937;-73
2023/01/02 05:20:02;;;;;;;;;;;20.30;55.20;;;;;;1598202;73;711;-73
2023/01/02 05:24:25;;;;;;;;;;;20.30;55.20;;;;;;1600893;73;1209;-73
2023/01/02 05:26:26;;;;;;;;;;;20.20;55.10;;;;;;1595169;73;702;-73
2023/01/02 05:28:28;;;;;;;;;;;20.30;55.20;;;;;;1603193;72;725;-74
2023/01/02 05:30:30;;;;;;;;;;;20.30;55.20;;;;;;1602682;73;729;-73
2023/01/02 05:32:32;;;;;;;;;;;20.30;55.20;;;;;;1603655;73;718;-73
2023/01/02 05:34:34;;;;;;;;;;;20.30;55.20;;;;;;1601686;73;1175;-74
2023/01/02 05:36:36;;;;;;;;;;;20.30;55.20;;;;;;1595058;73;1433;-73
2023/01/02 05:38:38;;;;;;;;;;;20.30;55.20;;;;;;1600551;73;1976;-73
2023/01/02 05:40:40;;;;;;;;;;;20.20;55.00;;;;;;1596092;73;753;-72
2023/01/02 05:42:42;;;;;;;;;;;20.30;55.20;;;;;;1610943;72;738;-72
2023/01/02 05:44:44;;;;;;;;;;;20.30;55.20;;;;;;1605323;73;1149;-73
2023/01/02 05:46:46;;;;;;;;;;;20.30;55.10;;;;;;1603808;73;729;-73
2023/01/02 05:48:47;;;;;;;;;;;20.20;55.00;;;;;;1604111;73;684;-73
2023/01/02 05:50:49;;;;;;;;;;;20.20;54.90;;;;;;1600628;73;1477;-73
2023/01/02 05:52:51;;;;;;;;;;;20.20;55.00;;;;;;1602693;73;732;-73
2023/01/02 05:54:53;;;;;;;;;;;20.30;55.10;;;;;;1601120;73;1142;-71
2023/01/02 05:56:55;;;;;;;;;;;20.20;55.00;;;;;;1603929;73;1895;-72
2023/01/02 05:58:57;;;;;;;;;;;20.30;55.10;;;;;;1590154;73;728;-72
2023/01/02 06:01:04;;;;;;;;;;;20.30;55.00;;;;;;1600942;73;734;-72
2023/01/02 06:03:05;;;;;;;;;;;20.30;55.00;;;;;;1601237;73;699;-72
2023/01/02 06:05:08;;;;;;;;;;;20.20;55.00;;;;;;1603628;72;1555;-71
2023/01/02 06:07:09;;;;;;;;;;;20.20;54.90;;;;;;1599399;73;673;-73
2023/01/02 06:09:12;;;;;;;;;;;20.30;55.00;;;;;;1603322;73;752;-73
2023/01/02 06:11:14;;;;;;;;;;;20.30;55.00;;;;;;1601588;73;714;-72
2023/01/02 06:13:16;;;;;;;;;;;20.30;55.00;;;;;;1603850;73;704;-72
2023/01/02 06:15:17;;;;;;;;;;;20.20;54.80;;;;;;1603512;73;1103;-71
2023/01/02 06:17:20;;;;;;;;;;;20.30;55.00;;;;;;1596904;73;1921;-72
2023/01/02 06:19:22;;;;;;;;;;;20.20;54.80;;;;;;1601758;73;1454;-73
2023/01/02 06:21:24;;;;;;;;;;;20.20;54.80;;;;;;1603494;73;722;-73
2023/01/02 06:23:25;;;;;;;;;;;20.20;54.80;;;;;;1599939;73;689;-72
2023/01/02 06:25:27;;;;;;;;;;;20.20;54.90;;;;;;1596083;73;762;-73
2023/01/02 06:27:31;;;;;;;;;;;20.30;55.00;;;;;;1599168;72;719;-72
2023/01/02 06:29:32;;;;;;;;;;;20.20;54.80;;;;;;1600898;73;712;-73
2023/01/02 06:31:34;;;;;;;;;;;20.20;54.80;;;;;;1604067;73;725;-74
2023/01/02 06:33:36;;;;;;;;;;;20.20;54.80;;;;;;1588550;73;1341;-73
2023/01/02 06:35:38;;;;;;;;;;;20.20;54.70;;;;;;1598775;73;713;-73
2023/01/02 06:37:43;;;;;;;;;;;20.20;54.80;;;;;;1599691;73;1915;-73
2023/01/02 06:39:45;;;;;;;;;;;20.30;54.90;;;;;;1603706;73;881;-72
2023/01/02 06:41:47;;;;;;;;;;;20.20;54.70;;;;;;1603343;72;736;-73
2023/01/02 06:43:49;;;;;;;;;;;20.20;54.70;;;;;;1600786;73;1130;-72
2023/01/02 06:45:51;;;;;;;;;;;20.20;54.70;;;;;;1602246;73;732;-72
2023/01/02 06:47:57;;;;;;;;;;;20.30;54.80;;;;;;1601681;73;1503;-71
2023/01/02 06:49:58;;;;;;;;;;;20.30;54.90;;;;;;1606040;73;712;-73
2023/01/02 06:52:00;;;;;;;;;;;20.20;54.70;;;;;;1603943;73;724;-72
2023/01/02 06:54:02;;;;;;;;;;;20.20;54.70;;;;;;1590559;73;1154;-72
2023/01/02 06:56:04;;;;;;;;;;;20.20;54.70;;;;;;1601870;72;725;-72
2023/01/02 06:58:06;;;;;;;;;;;20.20;54.70;;;;;;1608894;72;1925;-72
2023/01/02 07:00:08;;;;;;;;;;;20.20;54.70;;;;;;1604545;74;722;-73
2023/01/02 07:02:13;;;;;;;;;;;20.20;54.70;;;;;;1592579;73;1609;-71
2023/01/02 07:04:15;;;;;;;;;;;20.20;54.60;;;;;;1594934;73;1186;-73
2023/01/02 07:06:18;;;;;;;;;;;20.20;54.70;;;;;;1595547;73;728;-73
2023/01/02 07:08:20;;;;;;;;;;;20.30;54.70;;;;;;1601087;74;643;-72
2023/01/02 07:10:22;;;;;;;;;;;20.20;54.60;;;;;;1600133;73;698;-73
2023/01/02 07:12:24;;;;;;;;;;;20.20;54.60;;;;;;1606399;72;733;-73
2023/01/02 07:14:26;;;;;;;;;;;20.20;54.60;;;;;;1601096;73;1172;-72
2023/01/02 07:16:28;;;;;;;;;;;20.20;54.60;;;;;;1596199;73;1589;-73
2023/01/02 07:18:29;;;;;;;;;;;20.20;54.50;;;;;;1603240;73;1940;-72
2023/01/02 07:20:31;;;;;;;;;;;20.20;54.60;;;;;;1601500;73;718;-73
2023/01/02 07:22:33;;;;;;;;;;;20.20;54.60;;;;;;1601404;74;721;-73
2023/01/02 07:24:35;;;;;;;;;;;20.20;54.60;;;;;;1603009;73;1146;-73
2023/01/02 07:26:37;;;;;;;;;;;20.20;54.50;;;;;;1605126;72;709;-74
2023/01/02 07:28:39;;;;;;;;;;;20.30;54.70;;;;;;1601300;73;736;-73
2023/01/02 07:30:41;;;;;;;;;;;20.20;54.50;;;;;;1597902;73;1419;-72
2023/01/02 07:32:43;;;;;;;;;;;20.20;54.40;;;;;;1597995;74;691;-73
2023/01/02 07:34:44;;;;;;;;;;;20.20;54.50;;;;;;1601361;73;1153;-73
2023/01/02 07:36:46;;;;;;;;;;;20.20;54.40;;;;;;1594443;74;711;-73
2023/01/02 07:38:52;;;;;;;;;;;20.20;54.40;;;;;;1589394;73;1941;-73
2023/01/02 07:40:54;;;;;;;;;;;20.20;54.40;;;;;;1596769;73;697;-71
2023/01/02 07:42:55;;;;;;;;;;;20.20;54.40;;;;;;1599238;73;1473;-73
2023/01/02 07:44:57;;;;;;;;;;;20.20;54.40;;;;;;1603732;73;1142;-71
2023/01/02 07:46:59;;;;;;;;;;;20.20;54.40;;;;;;1603256;73;700;-72
2023/01/02 07:49:01;;;;;;;;;;;20.20;54.40;;;;;;1602722;73;731;-73
2023/01/02 07:51:03;;;;;;;;;;;20.20;54.40;;;;;;1601234;73;748;-73
2023/01/02 07:53:05;;;;;;;;;;;20.20;54.40;;;;;;1598740;74;730;-73
2023/01/02 07:55:07;;;;;;;;;;;20.20;54.40;;;;;;1594699;73;1140;-72
2023/01/02 07:57:09;;;;;;;;;;;20.20;54.40;;;;;;1614901;72;1454;-73
2023/01/02 07:59:11;;;;;;;;;;;20.20;54.40;;;;;;1599256;73;1940;-73
2023/01/02 08:01:13;;;;;;;;;;;20.20;54.40;;;;;;1594375;73;715;-73
2023/01/02 08:03:14;;;;;;;;;;;20.20;54.30;;;;;;1601379;73;723;-73
2023/01/02 08:05:16;;;;;;;;;;;20.20;54.30;;;;;;1602663;73;1178;-72
2023/01/02 08:07:18;;;;;;;;;;;20.20;54.40;;;;;;1593914;73;738;-73
2023/01/02 08:09:20;;;;;;;;;;;20.20;54.30;;;;;;1594793;73;743;-73
2023/01/02 08:11:22;;;;;;;;;;;20.20;54.30;;;;;;1604321;72;1466;-72
2023/01/02 08:13:24;;;;;;;;;;;20.20;54.30;;;;;;1592015;73;683;-72
2023/01/02 08:15:26;;;;;;;;;;;20.20;54.30;;;;;;1596392;73;1185;-73
2023/01/02 08:17:29;;;;;;;;;;;20.20;54.30;;;;;;1602837;73;592;-73
2023/01/02 08:19:30;;;;;;;;;;;20.20;54.30;;;;;;1593413;73;1891;-73
2023/01/02 08:21:32;;;;;;;;;;;20.20;54.30;;;;;;1592851;73;713;-73
2023/01/02 08:23:34;;;;;;;;;;;20.20;54.30;;;;;;1599022;73;1158;-73
2023/01/02 08:25:36;;;;;;;;;;;20.20;54.30;;;;;;1608059;72;1452;-74
2023/01/02 08:27:38;;;;;;;;;;;20.20;54.20;;;;;;1603885;73;735;-73
2023/01/02 08:29:40;;;;;;;;;;;20.10;54.20;;;;;;1591726;73;700;-72
2023/01/02 08:31:42;;;;;;;;;;;20.20;54.20;;;;;;1603882;73;730;-73
2023/01/02 08:33:44;;;;;;;;;;;20.20;54.20;;;;;;1601582;73;1197;-73
2023/01/02 08:35:46;;;;;;;;;;;20.20;54.20;;;;;;1591786;73;684;-73
2023/01/02 08:37:48;;;;;;;;;;;20.20;54.20;;;;;;1589679;73;1908;-73
2023/01/02 08:39:50;;;;;;;;;;;20.20;54.20;;;;;;1599561;73;1461;-73
2023/01/02 08:41:51;;;;;;;;;;;20.20;54.20;;;;;;1585855;73;738;-72
2023/01/02 08:43:53;;;;;;;;;;;20.20;54.20;;;;;;1607980;73;1164;-72
2023/01/02 08:45:55;;;;;;;;;;;20.20;54.20;;;;;;1601415;73;724;-72
2023/01/02 08:47:57;;;;;;;;;;;20.20;54.10;;;;;;1603553;73;703;-73
2023/01/02 08:49:59;;;;;;;;;;;20.20;54.10;;;;;;1601036;73;697;-73
2023/01/02 08:52:01;;;;;;;;;;;20.20;54.10;;;;;;1592332;73;709;-73
2023/01/02 08:54:03;;;;;;;;;;;20.20;54.10;;;;;;1596801;74;1405;-73
2023/01/02 08:56:20;;;;;;;;;;;20.20;54.10;;;;;;1598244;72;726;-74
2023/01/02 08:58:22;;;;;;;;;;;20.20;54.10;;;;;;1592632;73;1933;-71
2023/01/02 09:00:24;;;;;;;;;;;20.20;54.10;;;;;;1602335;73;719;-73
2023/01/02 09:02:26;;;;;;;;;;;20.20;54.00;;;;;;1600468;73;725;-72
2023/01/02 09:04:28;;;;;;;;;;;20.20;54.00;;;;;;1604312;73;1167;-72
2023/01/02 09:06:30;;;;;;;;;;;20.20;53.90;;;;;;1602253;73;723;-73
2023/01/02 09:08:32;;;;;;;;;;;20.20;54.00;;;;;;1603889;73;1540;-72
2023/01/02 09:10:34;;;;;;;;;;;20.20;53.90;;;;;;1586056;74;842;-73
2023/01/02 09:12:36;;;;;;;;;;;20.20;53.90;;;;;;1606552;72;665;-72
2023/01/02 09:14:38;;;;;;;;;;;20.20;53.90;;;;;;1601052;73;1127;-72
2023/01/02 09:16:40;;;;;;;;;;;20.20;53.90;;;;;;1602424;73;726;-72
2023/01/02 09:18:42;;;;;;;;;;;20.30;53.90;;;;;;1603889;73;1928;-72
2023/01/02 09:20:43;;;;;;;;;;;20.20;53.90;;;;;;1600620;73;730;-72
2023/01/02 09:22:45;;;;;;;;;;;20.20;53.70;;;;;;1600833;73;1485;-73
2023/01/02 09:24:47;;;;;;;;;;;20.20;53.60;;;;;;1588675;73;1143;-74
2023/01/02 09:26:49;;;;;;;;;;;20.20;53.60;;;;;;1609832;72;728;-74
2023/01/02 09:28:51;;;;;;;;;;;20.20;53.50;;;;;;1603730;73;732;-72
2023/01/02 09:30:53;;;;;;;;;;;20.30;53.60;;;;;;1603678;73;728;-72
2023/01/02 09:32:55;;;;;;;;;;;20.30;53.50;;;;;;1598650;73;714;-73
2023/01/02 09:34:57;;;;;;;;;;;20.30;53.40;;;;;;1597200;73;1167;-71
2023/01/02 09:36:58;;;;;;;;;;;20.30;53.50;;;;;;1598647;73;1451;-73
2023/01/02 09:39:00;;;;;;;;;;;20.30;53.40;;;;;;1594933;73;1932;-73
2023/01/02 09:41:04;;;;;;;;;;;20.30;53.40;;;;;;1596420;73;738;-73
2023/01/02 09:43:06;;;;;;;;;;;20.20;53.10;;;;;;1601055;73;1191;-73
2023/01/02 09:45:08;;;;;;;;;;;20.30;53.30;;;;;;1600596;73;1138;-73
2023/01/02 09:47:12;;;;;;;;;;;20.20;53.10;;;;;;1600959;73;706;-73
2023/01/02 09:49:15;;;;;;;;;;;20.30;53.20;;;;;;1602331;73;687;-72
2023/01/02 09:51:17;;;;;;;;;;;20.30;53.20;;;;;;1600685;73;1316;-75
2023/01/02 09:53:19;;;;;;;;;;;20.30;53.10;;;;;;1602661;73;755;-73
2023/01/02 09:55:25;;;;;;;;;;;20.30;53.10;;;;;;1604424;72;1103;-73
2023/01/02 09:57:30;;;;;;;;;;;20.30;53.10;;;;;;1589106;73;988;-74
2023/01/02 09:59:32;;;;;;;;;;;20.30;53.00;;;;;;1603134;73;1897;-73
2023/01/02 10:01:36;;;;;;;;;;;20.40;53.10;;;;;;1604098;73;730;-74
2023/01/02 10:03:51;;;;;;;;;;;20.40;53.00;;;;;;1599983;73;1592;-73
2023/01/02 10:05:55;;;;;;;;;;;20.40;52.90;;;;;;1591911;74;1188;-71
2023/01/02 10:07:58;;;;;;;;;;;20.30;52.80;;;;;;1598767;73;1161;-73
2023/01/02 10:10:02;;;;;;;;;;;20.40;52.80;;;;;;1593888;74;735;-73
2023/01/02 10:12:05;;;;;;;;;;;20.40;52.80;;;;;;1605449;72;706;-73
2023/01/02 10:14:08;;;;;;;;;;;20.40;52.80;;;;;;1594265;73;1151;-73
2023/01/02 10:16:12;;;;;;;;;;;20.40;52.80;;;;;;1603338;73;724;-73
2023/01/02 10:18:15;;;;;;;;;;;20.40;52.70;;;;;;1603229;73;1527;-73
2023/01/02 10:20:17;;;;;;;;;;;20.40;52.70;;;;;;1602581;73;1941;-72
2023/01/02 10:22:20;;;;;;;;;;;20.40;52.70;;;;;;1599405;73;726;-72
2023/01/02 10:24:26;;;;;;;;;;;20.40;52.70;;;;;;1602202;72;3080;-71
2023/01/02 10:26:30;;;;;;;;;;;20.40;52.70;;;;;;1570448;73;1012;-72
2023/01/02 10:28:43;;;;;;;;;;;20.40;52.70;;;;;;1588884;73;794;-72
2023/01/02 10:30:46;;;;;;;;;;;20.40;52.60;;;;;;1584297;75;712;-72
2023/01/02 10:32:53;;;;;;;;;;;20.40;52.70;;;;;;1586669;74;1486;-72
2023/01/02 10:35:05;;;;;;;;;;;20.40;52.60;;;;;;1586772;74;1700;-72
2023/01/02 10:37:13;;;;;;;;;;;20.40;52.70;;;;;;1591802;74;763;-72
2023/01/02 10:39:16;;;;;;;;;;;20.40;52.60;;;;;;1596018;74;1911;-72
2023/01/02 10:41:18;;;;;;;;;;;20.40;52.50;;;;;;1588344;74;705;-72
2023/01/02 10:43:20;;;;;;;;;;;20.40;52.60;;;;;;1586572;74;728;-72
2023/01/02 10:45:22;;;;;;;;;;;20.50;52.70;;;;;;1582761;74;1125;-72
2023/01/02 10:47:36;;;;;;;;;;;20.50;52.70;;;;;;1590791;74;1577;-72
2023/01/02 10:49:38;;;;;;;;;;;20.40;52.60;;;;;;1582805;74;769;-72
2023/01/02 10:51:42;;;;;;;;;;;20.40;52.60;;;;;;1590878;73;713;-73
2023/01/02 10:53:44;;;;;;;;;;;20.40;52.50;;;;;;1591405;74;1101;-73
2023/01/02 10:55:45;;;;;;;;;;;20.40;52.60;;;;;;1586338;74;1143;-72
2023/01/02 10:57:50;;;;;;;;;;;20.40;52.60;;;;;;1593842;74;716;-72
2023/01/02 10:59:53;;;;;;;;;;;20.50;52.60;;;;;;1589500;74;1917;-72
2023/01/02 11:01:56;;;;;;;;;;;20.40;52.50;;;;;;1588810;74;1047;-72
2023/01/02 11:04:00;;;;;;;;;;;20.40;52.50;;;;;;1592825;74;741;-72
2023/01/02 11:06:01;;;;;;;;;;;20.40;52.40;;;;;;1576223;74;708;-74
2023/01/02 11:08:05;;;;;;;;;;;20.50;52.60;;;;;;1588437;74;719;-71
2023/01/02 11:10:08;;;;;;;;;;;20.50;52.60;;;;;;1583376;74;717;-73
2023/01/02 11:12:11;;;;;;;;;;;20.50;52.60;;;;;;1586305;74;1765;-73
2023/01/02 11:14:13;;;;;;;;;;;20.50;52.50;;;;;;1580825;74;1387;-73
2023/01/02 11:16:15;;;;;;;;;;;20.50;52.60;;;;;;1554148;76;775;-73
2023/01/02 11:18:22;;;;;;;;;;;20.40;52.50;;;;;;1582273;74;710;-72
2023/01/02 11:20:25;;;;;;;;;;;20.40;52.50;;;;;;1585141;74;1933;-73
2023/01/02 11:22:33;;;;;;;;;;;20.40;52.50;;;;;;1583840;74;735;-72
2023/01/02 11:24:37;;;;;;;;;;;20.40;52.60;;;;;;1582645;74;1150;-72
2023/01/02 11:26:39;;;;;;;;;;;20.40;52.50;;;;;;1589178;74;1581;-72
2023/01/02 11:28:41;;;;;;;;;;;20.50;52.50;;;;;;1591807;74;1551;-72
2023/01/02 11:30:44;;;;;;;;;;;20.50;52.40;;;;;;1580572;74;735;-72
2023/01/02 11:32:46;;;;;;;;;;;20.50;52.50;;;;;;1586512;74;1090;-72
2023/01/02 11:35:01;;;;;;;;;;;20.50;52.60;;;;;;1591600;73;1153;-75
2023/01/02 11:37:04;;;;;;;;;;;20.50;52.50;;;;;;1591024;74;714;-73
2023/01/02 11:39:16;;;;;;;;;;;20.50;52.50;;;;;;1586146;73;1940;-72
2023/01/02 11:41:23;;;;;;;;;;;20.40;52.40;;;;;;1590906;74;984;-72
2023/01/02 11:43:47;;;;;;;;;;;20.40;52.40;;;;;;1583905;74;1468;-72
2023/01/02 11:45:48;;;;;;;;;;;20.50;52.50;;;;;;1574609;74;1413;-72
2023/01/02 11:47:50;;;;;;;;;;;20.50;52.40;;;;;;1584941;74;710;-74
2023/01/02 11:49:52;;;;;;;;;;;20.50;52.40;;;;;;1576151;74;704;-73
2023/01/02 11:51:57;;;;;;;;;;;20.50;52.40;;;;;;1593184;74;699;-72
2023/01/02 11:54:00;;;;;;;;;;;20.40;52.40;;;;;;1575207;73;1121;-71
2023/01/02 11:56:09;;;;;;;;;;;20.40;52.30;;;;;;1578718;74;1458;-72
2023/01/02 11:58:28;;;;;;;;;;;20.40;52.40;;;;;;1593232;74;748;-73
2023/01/02 12:00:31;;;;;;;;;;;20.50;52.30;;;;;;1571880;74;1934;-72
2023/01/02 12:02:38;;;;;;;;;;;20.40;52.30;;;;;;1581240;74;741;-74
2023/01/02 12:04:40;;;;;;;;;;;20.40;52.30;;;;;;1589708;74;1155;-73
2023/01/02 12:06:47;;;;;;;;;;;20.40;52.20;;;;;;1570392;74;794;-73
2023/01/02 12:08:53;;;;;;;;;;;20.40;52.30;;;;;;1593045;74;746;-72
2023/01/02 12:11:06;;;;;;;;;;;20.50;52.30;;;;;;1590692;73;1725;-72
2023/01/02 12:13:09;;;;;;;;;;;20.50;52.20;;;;;;1584811;74;1571;-73
2023/01/02 12:15:25;;;;;;;;;;;20.40;52.10;;;;;;1579993;74;1183;-72